sensor_id;sensor_type;location;lat;lon;timestamp;temperature;humidity
79301;SHT31;68755;51.984;5.646;2023-07-22T11:45:58;21.5;58.4
79301;SHT31;68755;51.984;5.646;2023-07-22T11:48:27;21.6;58.6
79301;SHT31;68755;51.984;5.646;2023-07-22T11:51:00;21.8;58.1
79301;SHT31;68755;51.984;5.646;2023-07-22T11:53:30;21.9;58.6
79301;SHT31;68755;51.984;5.646;2023-07-22T11:56:02;22.1;57.7
79301;SHT31;68755;51.984;5.646;2023-07-22T11:58:34;22.3;55.7
79301;SHT31;68755;51.984;5.646;2023-07-22T12:01:06;22.4;55.4
79301;SHT31;68755;51.984;5.646;2023-07-22T12:03:37;22.5;53.5
79301;SHT31;68755;51.984;5.646;2023-07-22T12:06:08;22.6;53.9
79301;SHT31;68755;51.984;5.646;2023-07-22T12:08:45;22.7;52.2
79301;SHT31;68755;51.984;5.646;2023-07-22T12:11:20;22.8;52.7
79301;SHT31;68755;51.984;5.646;2023-07-22T12:14:06;22.9;51.8
79301;SHT31;68755;51.984;5.646;2023-07-22T12:16:37;22.9;51.9
79301;SHT31;68755;51.984;5.646;2023-07-22T12:19:08;22.9;51.2
79301;SHT31;68755;51.984;5.646;2023-07-22T12:21:40;22.9;51.2
79301;SHT31;68755;51.984;5.646;2023-07-22T12:24:14;22.9;56.6
79301;SHT31;68755;51.984;5.646;2023-07-22T12:26:44;22.8;58.4
79301;SHT31;68755;51.984;5.646;2023-07-22T12:29:13;22.7;59.2
79301;SHT31;68755;51.984;5.646;2023-07-22T12:31:43;22.6;60.3
79301;SHT31;68755;51.984;5.646;2023-07-22T12:34:13;22.4;61.0
79301;SHT31;68755;51.984;5.646;2023-07-22T12:36:43;22.3;61.2
79301;SHT31;68755;51.984;5.646;2023-07-22T12:39:13;22.2;62.5
79301;SHT31;68755;51.984;5.646;2023-07-22T12:41:42;22.2;62.8
79301;SHT31;68755;51.984;5.646;2023-07-22T12:44:12;22.1;63.7
79301;SHT31;68755;51.984;5.646;2023-07-22T12:46:41;22.1;63.7
79301;SHT31;68755;51.984;5.646;2023-07-22T12:49:12;22.1;64.8
79301;SHT31;68755;51.984;5.646;2023-07-22T12:51:42;22.0;64.8
79301;SHT31;68755;51.984;5.646;2023-07-22T12:54:11;22.0;64.5
79301;SHT31;68755;51.984;5.646;2023-07-22T12:56:41;22.0;65.4
79301;SHT31;68755;51.984;5.646;2023-07-22T12:59:11;22.0;66.4
79301;SHT31;68755;51.984;5.646;2023-07-22T13:01:41;22.0;65.7
79301;SHT31;68755;51.984;5.646;2023-07-22T13:04:11;22.1;65.5
79301;SHT31;68755;51.984;5.646;2023-07-22T13:06:41;22.1;65.2
79301;SHT31;68755;51.984;5.646;2023-07-22T13:09:10;22.2;65.9
79301;SHT31;68755;51.984;5.646;2023-07-22T13:11:40;22.3;66.2
79301;SHT31;68755;51.984;5.646;2023-07-22T13:14:09;22.3;64.5
79301;SHT31;68755;51.984;5.646;2023-07-22T13:16:39;22.4;63.4
79301;SHT31;68755;51.984;5.646;2023-07-22T13:19:09;22.5;63.5
79301;SHT31;68755;51.984;5.646;2023-07-22T13:21:39;22.5;63.7
79301;SHT31;68755;51.984;5.646;2023-07-22T13:24:08;22.6;64.6
79301;SHT31;68755;51.984;5.646;2023-07-22T13:26:38;22.7;62.0
79301;SHT31;68755;51.984;5.646;2023-07-22T13:29:08;22.8;60.5
79301;SHT31;68755;51.984;5.646;2023-07-22T13:31:39;22.8;60.8
79301;SHT31;68755;51.984;5.646;2023-07-22T13:34:08;22.8;59.6
79301;SHT31;68755;51.984;5.646;2023-07-22T13:36:38;22.9;60.2
79301;SHT31;68755;51.984;5.646;2023-07-22T13:39:08;22.9;59.2
79301;SHT31;68755;51.984;5.646;2023-07-22T13:41:38;22.9;60.3
79301;SHT31;68755;51.984;5.646;2023-07-22T13:44:07;22.9;59.0
79301;SHT31;68755;51.984;5.646;2023-07-22T13:46:37;22.8;59.5
79301;SHT31;68755;51.984;5.646;2023-07-22T13:49:08;22.8;58.7
79301;SHT31;68755;51.984;5.646;2023-07-22T13:51:38;22.8;59.3
79301;SHT31;68755;51.984;5.646;2023-07-22T13:54:08;22.8;59.1
79301;SHT31;68755;51.984;5.646;2023-07-22T13:56:39;22.7;57.6
79301;SHT31;68755;51.984;5.646;2023-07-22T13:59:09;22.7;57.2
79301;SHT31;68755;51.984;5.646;2023-07-22T14:01:39;22.7;56.9
79301;SHT31;68755;51.984;5.646;2023-07-22T14:04:11;22.6;57.0
79301;SHT31;68755;51.984;5.646;2023-07-22T14:06:40;22.6;56.8
79301;SHT31;68755;51.984;5.646;2023-07-22T14:09:10;22.6;57.8
79301;SHT31;68755;51.984;5.646;2023-07-22T14:11:41;22.5;57.8
79301;SHT31;68755;51.984;5.646;2023-07-22T14:14:10;22.5;58.3
79301;SHT31;68755;51.984;5.646;2023-07-22T14:16:40;22.5;58.3
79301;SHT31;68755;51.984;5.646;2023-07-22T14:19:10;22.4;58.8
79301;SHT31;68755;51.984;5.646;2023-07-22T14:21:40;22.4;58.7
79301;SHT31;68755;51.984;5.646;2023-07-22T14:24:09;22.4;59.2
79301;SHT31;68755;51.984;5.646;2023-07-22T14:26:39;22.4;58.5
79301;SHT31;68755;51.984;5.646;2023-07-22T14:29:09;22.4;59.5
79301;SHT31;68755;51.984;5.646;2023-07-22T14:31:38;22.4;59.8
79301;SHT31;68755;51.984;5.646;2023-07-22T14:34:08;22.4;58.8
79301;SHT31;68755;51.984;5.646;2023-07-22T14:36:38;22.4;59.3
79301;SHT31;68755;51.984;5.646;2023-07-22T14:39:08;22.5;57.9
79301;SHT31;68755;51.984;5.646;2023-07-22T14:41:40;22.5;57.7
79301;SHT31;68755;51.984;5.646;2023-07-22T14:44:11;22.6;58.0
79301;SHT31;68755;51.984;5.646;2023-07-22T14:46:41;22.6;57.8
79301;SHT31;68755;51.984;5.646;2023-07-22T14:49:13;22.6;56.6
79301;SHT31;68755;51.984;5.646;2023-07-22T14:51:43;22.7;56.6
79301;SHT31;68755;51.984;5.646;2023-07-22T14:54:13;22.7;57.5
79301;SHT31;68755;51.984;5.646;2023-07-22T14:56:42;22.8;56.3
79301;SHT31;68755;51.984;5.646;2023-07-22T14:59:14;22.8;56.4
79301;SHT31;68755;51.984;5.646;2023-07-22T15:01:44;22.8;56.3
79301;SHT31;68755;51.984;5.646;2023-07-22T15:04:16;22.9;56.2
79301;SHT31;68755;51.984;5.646;2023-07-22T15:06:46;22.9;55.6
79301;SHT31;68755;51.984;5.646;2023-07-22T15:09:16;22.9;55.2
79301;SHT31;68755;51.984;5.646;2023-07-22T15:11:46;22.9;56.9
79301;SHT31;68755;51.984;5.646;2023-07-22T15:14:15;22.9;55.6
79301;SHT31;68755;51.984;5.646;2023-07-22T15:16:45;22.9;55.3
79301;SHT31;68755;51.984;5.646;2023-07-22T15:19:16;23.0;56.2
79301;SHT31;68755;51.984;5.646;2023-07-22T15:21:45;23.0;56.7
79301;SHT31;68755;51.984;5.646;2023-07-22T15:24:15;23.0;55.8
79301;SHT31;68755;51.984;5.646;2023-07-22T15:26:45;23.0;56.1
79301;SHT31;68755;51.984;5.646;2023-07-22T15:29:15;23.0;55.5
79301;SHT31;68755;51.984;5.646;2023-07-22T15:31:45;23.0;55.0
79301;SHT31;68755;51.984;5.646;2023-07-22T15:34:14;23.0;54.5
79301;SHT31;68755;51.984;5.646;2023-07-22T15:36:46;23.0;55.0
79301;SHT31;68755;51.984;5.646;2023-07-22T15:39:16;23.0;54.9
79301;SHT31;68755;51.984;5.646;2023-07-22T15:41:45;23.0;54.9
79301;SHT31;68755;51.984;5.646;2023-07-22T15:44:15;22.9;55.2
79301;SHT31;68755;51.984;5.646;2023-07-22T15:46:44;22.9;56.3
79301;SHT31;68755;51.984;5.646;2023-07-22T15:49:14;22.9;55.5
79301;SHT31;68755;51.984;5.646;2023-07-22T15:51:44;22.9;55.5
79301;SHT31;68755;51.984;5.646;2023-07-22T15:54:13;22.9;56.2
79301;SHT31;68755;51.984;5.646;2023-07-22T15:56:43;22.9;55.2
79301;SHT31;68755;51.984;5.646;2023-07-22T15:59:13;22.8;56.0
79301;SHT31;68755;51.984;5.646;2023-07-22T16:01:43;22.8;55.2
79301;SHT31;68755;51.984;5.646;2023-07-22T16:04:13;22.8;55.5
79301;SHT31;68755;51.984;5.646;2023-07-22T16:06:43;22.8;57.3
79301;SHT31;68755;51.984;5.646;2023-07-22T16:09:12;22.8;56.1
79301;SHT31;68755;51.984;5.646;2023-07-22T16:11:43;22.8;55.9
79301;SHT31;68755;51.984;5.646;2023-07-22T16:14:12;22.8;56.0
79301;SHT31;68755;51.984;5.646;2023-07-22T16:16:42;22.8;56.6
79301;SHT31;68755;51.984;5.646;2023-07-22T16:19:12;22.8;56.2
79301;SHT31;68755;51.984;5.646;2023-07-22T16:21:42;22.8;57.1
79301;SHT31;68755;51.984;5.646;2023-07-22T16:24:12;22.8;56.4
79301;SHT31;68755;51.984;5.646;2023-07-22T16:26:41;22.8;54.9
79301;SHT31;68755;51.984;5.646;2023-07-22T16:29:11;22.8;56.7
79301;SHT31;68755;51.984;5.646;2023-07-22T16:31:41;22.8;55.2
79301;SHT31;68755;51.984;5.646;2023-07-22T16:34:11;22.8;55.8
79301;SHT31;68755;51.984;5.646;2023-07-22T16:36:40;22.8;55.9
79301;SHT31;68755;51.984;5.646;2023-07-22T16:39:10;22.8;56.1
79301;SHT31;68755;51.984;5.646;2023-07-22T16:41:39;22.8;57.3
79301;SHT31;68755;51.984;5.646;2023-07-22T16:44:09;22.8;56.9
79301;SHT31;68755;51.984;5.646;2023-07-22T16:46:39;22.8;57.2
79301;SHT31;68755;51.984;5.646;2023-07-22T16:49:09;22.8;56.3
79301;SHT31;68755;51.984;5.646;2023-07-22T16:51:41;22.8;56.0
79301;SHT31;68755;51.984;5.646;2023-07-22T16:54:11;22.8;56.1
79301;SHT31;68755;51.984;5.646;2023-07-22T16:56:41;22.8;56.2
79301;SHT31;68755;51.984;5.646;2023-07-22T16:59:11;22.8;56.5
79301;SHT31;68755;51.984;5.646;2023-07-22T17:01:41;22.8;57.2
79301;SHT31;68755;51.984;5.646;2023-07-22T17:04:11;22.8;56.2
79301;SHT31;68755;51.984;5.646;2023-07-22T17:06:42;22.9;56.0
79301;SHT31;68755;51.984;5.646;2023-07-22T17:09:12;22.9;55.7
79301;SHT31;68755;51.984;5.646;2023-07-22T17:11:42;22.9;56.3
79301;SHT31;68755;51.984;5.646;2023-07-22T17:14:11;22.9;55.8
79301;SHT31;68755;51.984;5.646;2023-07-22T17:16:41;22.9;56.0
79301;SHT31;68755;51.984;5.646;2023-07-22T17:19:11;22.8;56.8
79301;SHT31;68755;51.984;5.646;2023-07-22T17:21:40;22.8;55.6
79301;SHT31;68755;51.984;5.646;2023-07-22T17:24:10;22.8;56.5
79301;SHT31;68755;51.984;5.646;2023-07-22T17:26:40;22.8;57.5
79301;SHT31;68755;51.984;5.646;2023-07-22T17:29:09;22.8;57.0
79301;SHT31;68755;51.984;5.646;2023-07-22T17:31:40;22.8;56.3
79301;SHT31;68755;51.984;5.646;2023-07-22T17:34:10;22.8;56.2
79301;SHT31;68755;51.984;5.646;2023-07-22T17:36:40;22.8;57.2
79301;SHT31;68755;51.984;5.646;2023-07-22T17:39:10;22.8;56.9
79301;SHT31;68755;51.984;5.646;2023-07-22T17:41:42;22.8;57.2
79301;SHT31;68755;51.984;5.646;2023-07-22T17:44:12;22.8;58.0
79301;SHT31;68755;51.984;5.646;2023-07-22T17:46:41;22.8;57.9
79301;SHT31;68755;51.984;5.646;2023-07-22T17:49:11;22.8;58.0
79301;SHT31;68755;51.984;5.646;2023-07-22T17:51:41;22.8;58.3
79301;SHT31;68755;51.984;5.646;2023-07-22T17:54:11;22.8;58.9
79301;SHT31;68755;51.984;5.646;2023-07-22T17:56:41;22.8;58.7
79301;SHT31;68755;51.984;5.646;2023-07-22T17:59:11;22.8;58.4
79301;SHT31;68755;51.984;5.646;2023-07-22T18:01:41;22.8;58.8
79301;SHT31;68755;51.984;5.646;2023-07-22T18:04:11;22.8;58.9
79301;SHT31;68755;51.984;5.646;2023-07-22T18:06:41;22.7;59.8
79301;SHT31;68755;51.984;5.646;2023-07-22T18:09:11;22.7;59.5
79301;SHT31;68755;51.984;5.646;2023-07-22T18:11:41;22.7;61.3
79301;SHT31;68755;51.984;5.646;2023-07-22T18:14:13;22.6;60.8
79301;SHT31;68755;51.984;5.646;2023-07-22T18:16:43;22.6;60.5
79301;SHT31;68755;51.984;5.646;2023-07-22T18:19:15;22.5;61.0
79301;SHT31;68755;51.984;5.646;2023-07-22T18:21:44;22.5;61.3
79301;SHT31;68755;51.984;5.646;2023-07-22T18:24:14;22.5;61.6
79301;SHT31;68755;51.984;5.646;2023-07-22T18:26:44;22.4;61.8
79301;SHT31;68755;51.984;5.646;2023-07-22T18:29:14;22.4;61.9
79301;SHT31;68755;51.984;5.646;2023-07-22T18:31:44;22.3;62.6
79301;SHT31;68755;51.984;5.646;2023-07-22T18:34:14;22.3;62.5
79301;SHT31;68755;51.984;5.646;2023-07-22T18:36:49;22.2;63.0
79301;SHT31;68755;51.984;5.646;2023-07-22T18:39:19;22.2;63.0
79301;SHT31;68755;51.984;5.646;2023-07-22T18:41:49;22.2;62.6
79301;SHT31;68755;51.984;5.646;2023-07-22T18:44:19;22.1;62.1
79301;SHT31;68755;51.984;5.646;2023-07-22T18:46:49;22.1;62.0
79301;SHT31;68755;51.984;5.646;2023-07-22T18:49:19;22.1;61.6
79301;SHT31;68755;51.984;5.646;2023-07-22T18:51:49;22.0;61.8
79301;SHT31;68755;51.984;5.646;2023-07-22T18:54:20;22.0;61.9
79301;SHT31;68755;51.984;5.646;2023-07-22T18:56:50;21.9;62.1
79301;SHT31;68755;51.984;5.646;2023-07-22T18:59:20;21.9;62.6
79301;SHT31;68755;51.984;5.646;2023-07-22T19:01:50;21.9;62.4
79301;SHT31;68755;51.984;5.646;2023-07-22T19:04:20;21.8;62.9
79301;SHT31;68755;51.984;5.646;2023-07-22T19:06:50;21.8;62.9
79301;SHT31;68755;51.984;5.646;2023-07-22T19:09:21;21.8;62.7
79301;SHT31;68755;51.984;5.646;2023-07-22T19:11:51;21.7;63.4
79301;SHT31;68755;51.984;5.646;2023-07-22T19:14:20;21.7;62.3
79301;SHT31;68755;51.984;5.646;2023-07-22T19:16:54;21.7;62.9
79301;SHT31;68755;51.984;5.646;2023-07-22T19:19:25;21.6;63.5
79301;SHT31;68755;51.984;5.646;2023-07-22T19:21:55;21.6;62.2
79301;SHT31;68755;51.984;5.646;2023-07-22T19:24:26;21.6;62.0
79301;SHT31;68755;51.984;5.646;2023-07-22T19:26:55;21.5;61.9
79301;SHT31;68755;51.984;5.646;2023-07-22T19:29:25;21.5;60.9
79301;SHT31;68755;51.984;5.646;2023-07-22T19:31:56;21.5;60.1
79301;SHT31;68755;51.984;5.646;2023-07-22T19:34:25;21.4;60.8
79301;SHT31;68755;51.984;5.646;2023-07-22T19:36:55;21.4;61.2
79301;SHT31;68755;51.984;5.646;2023-07-22T19:39:25;21.3;61.0
79301;SHT31;68755;51.984;5.646;2023-07-22T19:41:55;21.2;62.0
79301;SHT31;68755;51.984;5.646;2023-07-22T19:44:25;21.2;61.7
79301;SHT31;68755;51.984;5.646;2023-07-22T19:46:55;21.2;61.9
79301;SHT31;68755;51.984;5.646;2023-07-22T19:49:26;21.1;62.1
79301;SHT31;68755;51.984;5.646;2023-07-22T19:51:56;21.1;62.1
79301;SHT31;68755;51.984;5.646;2023-07-22T19:54:26;21.0;62.1
79301;SHT31;68755;51.984;5.646;2023-07-22T19:56:56;21.0;62.6
79301;SHT31;68755;51.984;5.646;2023-07-22T19:59:26;21.0;63.6
79301;SHT31;68755;51.984;5.646;2023-07-22T20:01:58;21.0;62.9
79301;SHT31;68755;51.984;5.646;2023-07-22T20:04:28;20.9;63.1
79301;SHT31;68755;51.984;5.646;2023-07-22T20:06:58;20.9;63.0
79301;SHT31;68755;51.984;5.646;2023-07-22T20:09:28;20.9;63.8
79301;SHT31;68755;51.984;5.646;2023-07-22T20:11:58;20.9;63.7
79301;SHT31;68755;51.984;5.646;2023-07-22T20:14:30;20.8;63.8
79301;SHT31;68755;51.984;5.646;2023-07-22T20:16:59;20.8;63.1
79301;SHT31;68755;51.984;5.646;2023-07-22T20:19:29;20.8;63.4
79301;SHT31;68755;51.984;5.646;2023-07-22T20:22:00;20.8;63.5
79301;SHT31;68755;51.984;5.646;2023-07-22T20:24:30;20.8;64.4
79301;SHT31;68755;51.984;5.646;2023-07-22T20:27:05;20.8;64.1
79301;SHT31;68755;51.984;5.646;2023-07-22T20:29:35;20.7;64.1
79301;SHT31;68755;51.984;5.646;2023-07-22T20:32:05;20.7;64.2
79301;SHT31;68755;51.984;5.646;2023-07-22T20:34:35;20.7;64.6
79301;SHT31;68755;51.984;5.646;2023-07-22T20:37:06;20.7;64.8
79301;SHT31;68755;51.984;5.646;2023-07-22T20:39:36;20.7;64.8
79301;SHT31;68755;51.984;5.646;2023-07-22T20:42:06;20.6;65.0
79301;SHT31;68755;51.984;5.646;2023-07-22T20:44:36;20.6;64.6
79301;SHT31;68755;51.984;5.646;2023-07-22T20:47:07;20.6;64.9
79301;SHT31;68755;51.984;5.646;2023-07-22T20:49:36;20.6;64.9
79301;SHT31;68755;51.984;5.646;2023-07-22T20:52:07;20.6;64.9
79301;SHT31;68755;51.984;5.646;2023-07-22T20:54:37;20.6;65.0
79301;SHT31;68755;51.984;5.646;2023-07-22T20:57:09;20.6;65.2
79301;SHT31;68755;51.984;5.646;2023-07-22T20:59:38;20.6;65.5
79301;SHT31;68755;51.984;5.646;2023-07-22T21:02:10;20.6;65.0
79301;SHT31;68755;51.984;5.646;2023-07-22T21:04:41;20.6;65.6
79301;SHT31;68755;51.984;5.646;2023-07-22T21:07:14;20.6;65.0
79301;SHT31;68755;51.984;5.646;2023-07-22T21:09:44;20.5;65.4
79301;SHT31;68755;51.984;5.646;2023-07-22T21:12:14;20.5;65.7
79301;SHT31;68755;51.984;5.646;2023-07-22T21:14:44;20.5;65.5
79301;SHT31;68755;51.984;5.646;2023-07-22T21:17:14;20.5;65.8
79301;SHT31;68755;51.984;5.646;2023-07-22T21:19:44;20.5;65.1
79301;SHT31;68755;51.984;5.646;2023-07-22T21:22:15;20.5;65.6
79301;SHT31;68755;51.984;5.646;2023-07-22T21:24:45;20.5;65.3
79301;SHT31;68755;51.984;5.646;2023-07-22T21:27:15;20.5;65.9
79301;SHT31;68755;51.984;5.646;2023-07-22T21:29:45;20.4;66.3
79301;SHT31;68755;51.984;5.646;2023-07-22T21:32:15;20.4;66.2
79301;SHT31;68755;51.984;5.646;2023-07-22T21:34:45;20.4;66.1
79301;SHT31;68755;51.984;5.646;2023-07-22T21:37:15;20.4;65.9
79301;SHT31;68755;51.984;5.646;2023-07-22T21:39:45;20.4;66.4
79301;SHT31;68755;51.984;5.646;2023-07-22T21:42:15;20.4;66.6
79301;SHT31;68755;51.984;5.646;2023-07-22T21:44:48;20.4;66.3
79301;SHT31;68755;51.984;5.646;2023-07-22T21:47:18;20.4;66.4
79301;SHT31;68755;51.984;5.646;2023-07-22T21:49:48;20.4;66.6
79301;SHT31;68755;51.984;5.646;2023-07-22T21:52:18;20.3;66.9
79301;SHT31;68755;51.984;5.646;2023-07-22T21:54:48;20.3;67.0
79301;SHT31;68755;51.984;5.646;2023-07-22T21:57:18;20.3;67.2
79301;SHT31;68755;51.984;5.646;2023-07-22T21:59:49;20.3;67.4
79301;SHT31;68755;51.984;5.646;2023-07-22T22:02:19;20.3;67.5
79301;SHT31;68755;51.984;5.646;2023-07-22T22:04:48;20.3;67.3
79301;SHT31;68755;51.984;5.646;2023-07-22T22:07:18;20.3;67.4
79301;SHT31;68755;51.984;5.646;2023-07-22T22:09:48;20.3;67.3
79301;SHT31;68755;51.984;5.646;2023-07-22T22:12:18;20.3;67.4
79301;SHT31;68755;51.984;5.646;2023-07-22T22:14:51;20.3;67.2
79301;SHT31;68755;51.984;5.646;2023-07-22T22:17:21;20.3;67.3
79301;SHT31;68755;51.984;5.646;2023-07-22T22:19:51;20.3;67.6
79301;SHT31;68755;51.984;5.646;2023-07-22T22:22:21;20.2;67.4
79301;SHT31;68755;51.984;5.646;2023-07-22T22:24:51;20.2;66.7
79301;SHT31;68755;51.984;5.646;2023-07-22T22:27:21;20.2;67.1
79301;SHT31;68755;51.984;5.646;2023-07-22T22:29:51;20.2;67.1
79301;SHT31;68755;51.984;5.646;2023-07-22T22:32:21;20.2;67.0
79301;SHT31;68755;51.984;5.646;2023-07-22T22:34:51;20.2;67.4
79301;SHT31;68755;51.984;5.646;2023-07-22T22:37:22;20.2;67.1
79301;SHT31;68755;51.984;5.646;2023-07-22T22:39:51;20.2;67.4
79301;SHT31;68755;51.984;5.646;2023-07-22T22:42:21;20.1;67.6
79301;SHT31;68755;51.984;5.646;2023-07-22T22:44:52;20.1;67.7
79301;SHT31;68755;51.984;5.646;2023-07-22T22:47:21;20.1;67.9
79301;SHT31;68755;51.984;5.646;2023-07-22T22:49:51;20.1;67.9
79301;SHT31;68755;51.984;5.646;2023-07-22T22:52:21;20.1;67.7
79301;SHT31;68755;51.984;5.646;2023-07-22T22:54:52;20.0;67.6
79301;SHT31;68755;51.984;5.646;2023-07-22T22:57:21;20.0;68.1
79301;SHT31;68755;51.984;5.646;2023-07-22T22:59:51;20.0;68.3
79301;SHT31;68755;51.984;5.646;2023-07-22T23:02:21;20.0;67.9
79301;SHT31;68755;51.984;5.646;2023-07-22T23:04:51;20.0;68.4
79301;SHT31;68755;51.984;5.646;2023-07-22T23:07:21;20.0;67.9
79301;SHT31;68755;51.984;5.646;2023-07-22T23:09:50;20.0;68.1
79301;SHT31;68755;51.984;5.646;2023-07-22T23:12:20;20.0;68.2
79301;SHT31;68755;51.984;5.646;2023-07-22T23:14:50;20.0;68.3
79301;SHT31;68755;51.984;5.646;2023-07-22T23:17:20;20.0;68.6
79301;SHT31;68755;51.984;5.646;2023-07-22T23:19:50;19.9;68.4
79301;SHT31;68755;51.984;5.646;2023-07-22T23:22:20;19.9;68.4
79301;SHT31;68755;51.984;5.646;2023-07-22T23:24:49;19.9;68.7
79301;SHT31;68755;51.984;5.646;2023-07-22T23:27:19;19.9;68.6
79301;SHT31;68755;51.984;5.646;2023-07-22T23:29:49;19.9;68.4
79301;SHT31;68755;51.984;5.646;2023-07-22T23:32:18;19.9;68.6
79301;SHT31;68755;51.984;5.646;2023-07-22T23:34:50;19.9;68.7
79301;SHT31;68755;51.984;5.646;2023-07-22T23:37:20;19.9;68.1
79301;SHT31;68755;51.984;5.646;2023-07-22T23:39:50;19.9;68.6
79301;SHT31;68755;51.984;5.646;2023-07-22T23:42:20;19.9;68.6
79301;SHT31;68755;51.984;5.646;2023-07-22T23:44:49;19.8;68.4
79301;SHT31;68755;51.984;5.646;2023-07-22T23:47:19;19.8;68.4
79301;SHT31;68755;51.984;5.646;2023-07-22T23:49:49;19.8;68.6
79301;SHT31;68755;51.984;5.646;2023-07-22T23:52:18;19.8;68.7
79301;SHT31;68755;51.984;5.646;2023-07-22T23:54:48;19.8;68.7
79301;SHT31;68755;51.984;5.646;2023-07-22T23:57:18;19.8;69.1
79301;SHT31;68755;51.984;5.646;2023-07-22T23:59:47;19.8;69.1
